Roanoke, Virginia
Current Conditions -  °F | °C
As of 2:54 AM on Friday 28 Nov 2014 (Local Time) from KROA Reporting Station
Overcast Overcast  
Wind Chill: -3°   Ceiling: 4900
Heat Index: -1°   Visibility: 10mi
Dew Point: -6°   Wind: 5mph
Humidity: 67%   Direction: 40°NE
Pressure: 30.27"   Gusts: NA
Location:  37.27°N, 79.94°W
Report Text: KROA 280754Z 04004KT 10SM BKN049 OVC060 M01/M06 A3027 RMK AO2 SLP259 T10061061
Loading
Personal Weather Stations






























Interactive Weather Map New forecast layout! Learn more

10-Day Weather Forecast

Advertisements
Track Severe Weather on mobile